Time;durP1;ratioP1;P1;durP2;ratioP2;P2;SDS_P1;SDS_P2;PMS_P1;PMS_P2;Temp;Humidity;BMP_temperature;BMP_pressure;BME280_temperature;BME280_humidity;BME280_pressure;Samples;Min_cycle;Max_cycle;Signal;HPM_P1;HPM_P2
2022/02/05 00:00:46;;;;;;;5.40;4.67;;;;;;;;;;5018865;28;20186;-58
2022/02/05 00:02:50;;;;;;;7.10;4.53;;;;;;;;;;5002782;28;20227;-58
2022/02/05 00:05:25;;;;;;;6.57;4.40;;;;;;;;;;5015549;28;21470;-58
2022/02/05 00:08:09;;;;;;;5.00;4.17;;;;;;;;;;5010577;28;20627;-58
2022/02/05 00:40:53;;;;;;;7.23;4.23;;;;;;;;;;5030938;28;20653;-58
2022/02/05 00:43:19;;;;;;;6.43;3.90;;;;;;;;;;4995014;28;20560;-58
2022/02/05 00:45:51;;;;;;;6.23;4.73;;;;;;;;;;5026193;28;20184;-58
2022/02/05 00:48:20;;;;;;;4.33;3.93;;;;;;;;;;5030282;28;20177;-58
2022/02/05 00:50:57;;;;;;;4.93;3.80;;;;;;;;;;5022510;28;20218;-59
2022/02/05 00:53:32;;;;;;;8.07;5.97;;;;;;;;;;5006669;28;20197;-58
2022/02/05 00:56:14;;;;;;;8.40;4.57;;;;;;;;;;5009853;28;20165;-58
2022/02/05 00:58:41;;;;;;;6.53;4.37;;;;;;;;;;5021443;28;20182;-58
2022/02/05 01:01:14;;;;;;;5.57;4.23;;;;;;;;;;5028414;28;20886;-58
2022/02/05 01:03:49;;;;;;;6.97;4.40;;;;;;;;;;5024481;28;20265;-58
2022/02/05 01:06:15;;;;;;;6.17;4.93;;;;;;;;;;5030211;28;20206;-58
2022/02/05 01:08:45;;;;;;;4.97;4.40;;;;;;;;;;5027722;28;20205;-59
2022/02/05 01:11:12;;;;;;;7.47;4.20;;;;;;;;;;5045761;28;20201;-58
2022/02/05 01:13:40;;;;;;;8.10;4.13;;;;;;;;;;5025743;28;20174;-58
2022/02/05 01:16:19;;;;;;;8.07;4.43;;;;;;;;;;5046219;28;20180;-59
2022/02/05 01:18:46;;;;;;;5.83;4.33;;;;;;;;;;5035945;28;20170;-58
2022/02/05 01:32:24;;;;;;;7.90;4.20;;;;;;;;;;4946466;28;20196;-58
2022/02/05 01:56:49;;;;;;;6.30;4.53;;;;;;;;;;5005835;28;20212;-59
2022/02/05 01:59:29;;;;;;;8.10;4.13;;;;;;;;;;5038997;28;20264;-59
2022/02/05 02:04:51;;;;;;;10.10;5.60;;;;;;;;;;5028083;28;20188;-59
2022/02/05 02:28:59;;;;;;;7.20;4.13;;;;;;;;;;5007069;28;20190;-59
2022/02/05 02:31:31;;;;;;;6.77;4.53;;;;;;;;;;5035361;28;20205;-59
2022/02/05 02:34:03;;;;;;;8.87;4.70;;;;;;;;;;5009843;28;20629;-59
2022/02/05 02:37:14;;;;;;;9.90;4.70;;;;;;;;;;4993334;28;20176;-59
2022/02/05 02:39:25;;;;;;;7.37;4.40;;;;;;;;;;5000279;28;20178;-59
2022/02/05 02:42:01;;;;;;;8.30;4.83;;;;;;;;;;5009126;28;20504;-59
2022/02/05 02:44:30;;;;;;;8.07;4.70;;;;;;;;;;5021528;28;20192;-59
2022/02/05 02:46:56;;;;;;;6.20;4.00;;;;;;;;;;5006744;28;20194;-59
2022/02/05 02:49:51;;;;;;;7.57;4.67;;;;;;;;;;5009893;28;20182;-59
2022/02/05 02:57:54;;;;;;;7.97;4.70;;;;;;;;;;5003209;28;20643;-59
2022/02/05 03:00:20;;;;;;;9.83;5.07;;;;;;;;;;5017257;28;20205;-59
2022/02/05 03:02:46;;;;;;;8.20;5.07;;;;;;;;;;5016494;28;20186;-59
2022/02/05 03:05:16;;;;;;;7.73;4.67;;;;;;;;;;4998637;28;20265;-59
2022/02/05 03:07:42;;;;;;;9.60;4.47;;;;;;;;;;4999114;28;20195;-59
2022/02/05 03:10:08;;;;;;;10.40;4.90;;;;;;;;;;5025307;28;20264;-59
2022/02/05 03:12:43;;;;;;;11.63;4.80;;;;;;;;;;5028094;28;20255;-59
2022/02/05 03:15:13;;;;;;;10.13;4.60;;;;;;;;;;5027218;28;20212;-59
2022/02/05 03:17:52;;;;;;;9.53;4.70;;;;;;;;;;5032139;28;21121;-59
2022/02/05 03:20:19;;;;;;;10.03;4.57;;;;;;;;;;5032110;28;20774;-59
2022/02/05 03:22:45;;;;;;;6.17;4.27;;;;;;;;;;5045399;28;20702;-59
2022/02/05 03:25:11;;;;;;;8.57;4.80;;;;;;;;;;5016369;28;20207;-59
2022/02/05 03:27:41;;;;;;;12.57;4.50;;;;;;;;;;5028074;28;20181;-59
2022/02/05 03:30:07;;;;;;;5.83;3.97;;;;;;;;;;5028107;28;20320;-59
2022/02/05 03:32:34;;;;;;;9.80;5.07;;;;;;;;;;5018276;28;20179;-59
2022/02/05 03:35:00;;;;;;;9.23;4.63;;;;;;;;;;5021689;28;20189;-59
2022/02/05 03:37:29;;;;;;;8.33;5.10;;;;;;;;;;5043932;28;20174;-59
2022/02/05 03:39:55;;;;;;;6.30;3.90;;;;;;;;;;5049625;28;20196;-58
2022/02/05 03:42:21;;;;;;;9.07;4.57;;;;;;;;;;5028046;28;20269;-59
2022/02/05 03:44:48;;;;;;;8.13;4.80;;;;;;;;;;5025215;28;20488;-59
2022/02/05 03:47:14;;;;;;;6.93;3.67;;;;;;;;;;5037955;28;20551;-59
2022/02/05 03:49:40;;;;;;;8.07;4.07;;;;;;;;;;5009348;28;20181;-59
2022/02/05 03:52:07;;;;;;;7.60;4.30;;;;;;;;;;5014764;28;20198;-59
2022/02/05 03:54:34;;;;;;;5.43;3.50;;;;;;;;;;5032292;28;20205;-59
2022/02/05 03:57:01;;;;;;;8.77;4.03;;;;;;;;;;5027388;28;20252;-59
2022/02/05 03:59:29;;;;;;;6.73;4.00;;;;;;;;;;5010035;28;20173;-59
2022/02/05 04:02:01;;;;;;;6.53;4.00;;;;;;;;;;5031622;28;20185;-59
2022/02/05 04:04:28;;;;;;;6.87;4.13;;;;;;;;;;5019695;28;20181;-59
2022/02/05 04:06:54;;;;;;;5.10;4.30;;;;;;;;;;5027810;28;20609;-59
2022/02/05 04:09:26;;;;;;;10.10;4.27;;;;;;;;;;5027428;28;20716;-59
2022/02/05 04:17:27;;;;;;;6.57;4.33;;;;;;;;;;5027692;28;20169;-59
2022/02/05 04:19:56;;;;;;;9.03;4.30;;;;;;;;;;5027917;28;20578;-59
2022/02/05 04:22:22;;;;;;;8.40;4.70;;;;;;;;;;5033715;28;20200;-58
2022/02/05 04:24:48;;;;;;;7.43;3.83;;;;;;;;;;5022502;28;20587;-59
2022/02/05 04:27:14;;;;;;;7.63;4.43;;;;;;;;;;5035055;28;20177;-59
2022/02/05 04:29:46;;;;;;;7.40;4.20;;;;;;;;;;5037714;28;20194;-59
2022/02/05 04:32:13;;;;;;;7.43;4.10;;;;;;;;;;5024888;28;20221;-59
2022/02/05 04:34:40;;;;;;;8.10;4.33;;;;;;;;;;5030882;28;20189;-59
2022/02/05 04:37:07;;;;;;;7.10;4.63;;;;;;;;;;5032376;28;20194;-59
2022/02/05 04:39:36;;;;;;;8.93;4.53;;;;;;;;;;5027485;28;20181;-58
2022/02/05 04:42:16;;;;;;;7.97;4.57;;;;;;;;;;5028894;28;20177;-59
2022/02/05 04:45:26;;;;;;;8.97;4.23;;;;;;;;;;5019280;28;20877;-59
2022/02/05 04:50:50;;;;;;;6.80;4.53;;;;;;;;;;5022826;28;20267;-59
2022/02/05 05:00:58;;;;;;;9.03;4.60;;;;;;;;;;5031341;28;20539;-59
2022/02/05 05:03:38;;;;;;;8.20;4.57;;;;;;;;;;5015987;28;20192;-59
2022/02/05 05:11:51;;;;;;;12.40;4.93;;;;;;;;;;5039033;28;20204;-59
2022/02/05 05:19:46;;;;;;;8.30;4.07;;;;;;;;;;5028070;28;20356;-59
2022/02/05 05:22:18;;;;;;;7.63;4.23;;;;;;;;;;5040344;28;20181;-59
2022/02/05 05:24:44;;;;;;;5.80;3.93;;;;;;;;;;5048234;28;20636;-59
2022/02/05 05:27:11;;;;;;;7.50;4.07;;;;;;;;;;5044297;28;20244;-59
2022/02/05 05:29:37;;;;;;;7.90;3.80;;;;;;;;;;5011673;28;20185;-59
2022/02/05 05:32:04;;;;;;;6.27;4.33;;;;;;;;;;5038628;28;20222;-59
2022/02/05 05:34:30;;;;;;;7.80;3.33;;;;;;;;;;5027295;28;20181;-59
2022/02/05 05:36:57;;;;;;;5.63;3.80;;;;;;;;;;5017190;28;20169;-59
2022/02/05 05:39:24;;;;;;;4.43;3.17;;;;;;;;;;5035820;28;20659;-58
2022/02/05 05:41:53;;;;;;;7.50;3.20;;;;;;;;;;5030832;28;20663;-59
2022/02/05 05:44:58;;;;;;;5.17;3.10;;;;;;;;;;5013298;28;20711;-59
2022/02/05 05:52:24;;;;;;;5.63;3.47;;;;;;;;;;5045356;28;20177;-59
2022/02/05 05:54:50;;;;;;;6.67;3.73;;;;;;;;;;5033885;28;20597;-59
2022/02/05 05:57:26;;;;;;;6.83;2.77;;;;;;;;;;5049394;28;20243;-59
2022/02/05 05:59:52;;;;;;;5.70;2.87;;;;;;;;;;5028537;28;20215;-59
2022/02/05 06:02:18;;;;;;;4.20;3.27;;;;;;;;;;5020822;28;20239;-59
2022/02/05 06:04:45;;;;;;;5.37;2.47;;;;;;;;;;5041897;28;20631;-60
2022/02/05 06:07:14;;;;;;;5.90;2.90;;;;;;;;;;5032675;28;20593;-59
2022/02/05 06:09:43;;;;;;;4.97;2.83;;;;;;;;;;5022604;28;20225;-59
2022/02/05 06:12:12;;;;;;;5.63;3.00;;;;;;;;;;5010057;28;20218;-59
2022/02/05 06:14:39;;;;;;;5.17;3.53;;;;;;;;;;5010689;28;20173;-60
2022/02/05 06:17:07;;;;;;;4.33;3.07;;;;;;;;;;4997896;28;20181;-59
2022/02/05 06:19:38;;;;;;;5.30;2.80;;;;;;;;;;5013987;28;20178;-59
2022/02/05 06:22:05;;;;;;;5.73;3.57;;;;;;;;;;5007792;28;20538;-59
2022/02/05 06:24:31;;;;;;;5.13;3.13;;;;;;;;;;4993676;28;20186;-59
2022/02/05 06:27:00;;;;;;;6.50;3.13;;;;;;;;;;5015332;28;20205;-59
2022/02/05 06:29:38;;;;;;;3.80;2.83;;;;;;;;;;5009547;28;20224;-59
2022/02/05 06:32:05;;;;;;;6.90;3.43;;;;;;;;;;5008590;28;20562;-59
2022/02/05 06:34:31;;;;;;;7.63;3.60;;;;;;;;;;5007484;28;20186;-59
2022/02/05 06:36:57;;;;;;;8.40;4.43;;;;;;;;;;5016486;28;20641;-59
2022/02/05 06:39:23;;;;;;;10.20;3.73;;;;;;;;;;4992477;28;20187;-59
2022/02/05 06:41:50;;;;;;;7.53;4.13;;;;;;;;;;4992661;28;20601;-59
2022/02/05 06:44:16;;;;;;;6.43;4.30;;;;;;;;;;4992365;28;20637;-59
2022/02/05 06:46:45;;;;;;;7.47;4.13;;;;;;;;;;4993838;28;20260;-59
2022/02/05 06:49:12;;;;;;;6.87;4.53;;;;;;;;;;4990291;28;20174;-59
2022/02/05 06:51:38;;;;;;;7.30;4.67;;;;;;;;;;5008537;28;20285;-59
2022/02/05 06:54:07;;;;;;;8.77;4.30;;;;;;;;;;5016295;28;20210;-59
2022/02/05 06:56:34;;;;;;;10.83;4.93;;;;;;;;;;5008285;28;20521;-57
2022/02/05 06:59:03;;;;;;;8.03;4.73;;;;;;;;;;5008201;28;20179;-57
2022/02/05 07:01:29;;;;;;;8.43;5.23;;;;;;;;;;5022028;28;20408;-57
2022/02/05 07:03:55;;;;;;;9.70;5.27;;;;;;;;;;5006870;28;20281;-57
2022/02/05 07:06:22;;;;;;;10.03;4.87;;;;;;;;;;5004798;28;20187;-57
2022/02/05 07:08:48;;;;;;;9.00;5.00;;;;;;;;;;4999684;28;20640;-57
2022/02/05 07:11:17;;;;;;;11.67;5.83;;;;;;;;;;5026347;28;20209;-57
2022/02/05 07:13:51;;;;;;;11.37;5.63;;;;;;;;;;5019712;28;20192;-57
2022/02/05 07:16:24;;;;;;;10.73;4.73;;;;;;;;;;5023899;28;20169;-57
2022/02/05 07:21:51;;;;;;;8.03;4.70;;;;;;;;;;5012922;28;20640;-58
2022/02/05 07:29:32;;;;;;;10.60;4.70;;;;;;;;;;5022236;28;20274;-58
2022/02/05 07:31:58;;;;;;;9.00;4.60;;;;;;;;;;5020165;28;20737;-58
2022/02/05 07:34:26;;;;;;;6.53;4.33;;;;;;;;;;5029032;28;20265;-58
2022/02/05 07:36:58;;;;;;;8.97;4.83;;;;;;;;;;5028592;28;20173;-57
2022/02/05 07:39:27;;;;;;;7.00;4.50;;;;;;;;;;5018620;28;20640;-58
2022/02/05 07:41:54;;;;;;;5.97;3.83;;;;;;;;;;5027181;28;20193;-58
2022/02/05 07:44:23;;;;;;;9.43;4.60;;;;;;;;;;5016148;28;20193;-58
2022/02/05 07:46:53;;;;;;;7.57;4.47;;;;;;;;;;5019069;28;20188;-58
2022/02/05 07:49:22;;;;;;;10.07;4.60;;;;;;;;;;5008542;28;20324;-57
2022/02/05 07:51:48;;;;;;;7.03;4.27;;;;;;;;;;5018121;28;20572;-57
2022/02/05 07:54:15;;;;;;;5.67;3.93;;;;;;;;;;4995043;28;20220;-57
2022/02/05 07:56:44;;;;;;;11.83;4.83;;;;;;;;;;5032377;28;20271;-57
2022/02/05 07:59:17;;;;;;;7.63;3.63;;;;;;;;;;5026426;28;20568;-57
2022/02/05 08:01:46;;;;;;;8.10;4.60;;;;;;;;;;5026897;28;20177;-57
2022/02/05 08:04:17;;;;;;;5.20;3.47;;;;;;;;;;5037377;28;20216;-57
2022/02/05 08:06:57;;;;;;;6.93;4.27;;;;;;;;;;5026788;28;20177;-58
2022/02/05 08:09:45;;;;;;;7.27;4.10;;;;;;;;;;5024421;28;20267;-58
2022/02/05 08:12:14;;;;;;;8.23;3.80;;;;;;;;;;5006302;28;20201;-58
2022/02/05 08:14:51;;;;;;;8.07;3.90;;;;;;;;;;5025360;28;20680;-59
2022/02/05 08:17:39;;;;;;;6.70;4.13;;;;;;;;;;5033342;28;20173;-58
2022/02/05 08:20:04;;;;;;;7.47;3.83;;;;;;;;;;5023317;28;20704;-58
2022/02/05 08:22:30;;;;;;;11.03;4.07;;;;;;;;;;5025352;28;20237;-58
2022/02/05 08:25:02;;;;;;;6.13;3.87;;;;;;;;;;5008445;28;20189;-58
2022/02/05 08:27:31;;;;;;;6.90;3.63;;;;;;;;;;5019482;28;20221;-58
2022/02/05 08:30:05;;;;;;;14.93;4.40;;;;;;;;;;5026176;28;20224;-58
2022/02/05 08:32:31;;;;;;;8.33;3.53;;;;;;;;;;5022071;28;20182;-58
2022/02/05 08:34:59;;;;;;;7.00;3.90;;;;;;;;;;5010113;28;20174;-58
2022/02/05 08:37:27;;;;;;;5.13;3.23;;;;;;;;;;5028841;28;20259;-58
2022/02/05 08:39:53;;;;;;;6.83;3.73;;;;;;;;;;5029128;28;20174;-58
2022/02/05 08:42:23;;;;;;;6.50;3.47;;;;;;;;;;5005994;28;20197;-57
2022/02/05 08:44:49;;;;;;;6.97;3.57;;;;;;;;;;5033976;28;20181;-58
2022/02/05 08:47:16;;;;;;;8.20;4.00;;;;;;;;;;5003999;28;20179;-58
2022/02/05 08:49:57;;;;;;;7.70;3.73;;;;;;;;;;5000697;28;20198;-58
2022/02/05 08:52:24;;;;;;;9.60;5.20;;;;;;;;;;5021326;28;20202;-58
2022/02/05 08:54:58;;;;;;;7.93;4.70;;;;;;;;;;5033785;28;20170;-58
2022/02/05 08:57:27;;;;;;;8.57;4.37;;;;;;;;;;5037273;28;20667;-58
2022/02/05 09:00:00;;;;;;;8.60;4.77;;;;;;;;;;5028016;28;20268;-58
2022/02/05 09:02:37;;;;;;;6.83;4.50;;;;;;;;;;5007707;28;20586;-57
2022/02/05 09:07:33;;;;;;;12.27;4.60;;;;;;;;;;5019311;28;20190;-57
2022/02/05 09:10:12;;;;;;;11.23;4.83;;;;;;;;;;5024295;28;20511;-58
2022/02/05 09:15:06;;;;;;;9.63;5.10;;;;;;;;;;5032445;28;20671;-55
2022/02/05 09:17:32;;;;;;;7.93;3.87;;;;;;;;;;5028514;28;20176;-54
2022/02/05 09:20:04;;;;;;;6.23;4.10;;;;;;;;;;5026457;28;20187;-57
2022/02/05 09:22:53;;;;;;;7.30;3.70;;;;;;;;;;5010490;28;20242;-56
2022/02/05 09:25:35;;;;;;;3.53;3.20;;;;;;;;;;5015617;28;20190;-57
2022/02/05 09:28:01;;;;;;;6.40;3.80;;;;;;;;;;5013352;28;20183;-57
2022/02/05 09:33:34;;;;;;;7.47;4.03;;;;;;;;;;5020551;28;20294;-57
2022/02/05 09:36:03;;;;;;;8.53;4.13;;;;;;;;;;5020495;28;20634;-57
2022/02/05 09:38:29;;;;;;;6.27;3.23;;;;;;;;;;5020571;28;20190;-57
2022/02/05 09:40:57;;;;;;;8.93;3.53;;;;;;;;;;5025404;28;20645;-56
2022/02/05 09:43:24;;;;;;;5.63;3.30;;;;;;;;;;5006723;28;20182;-56
2022/02/05 09:45:51;;;;;;;8.20;3.60;;;;;;;;;;5042531;28;20611;-57
2022/02/05 09:48:18;;;;;;;8.43;3.83;;;;;;;;;;5019394;28;20231;-56
2022/02/05 09:50:44;;;;;;;13.10;4.53;;;;;;;;;;5030973;28;20538;-57
2022/02/05 09:53:16;;;;;;;7.90;3.57;;;;;;;;;;5029611;28;20320;-56
2022/02/05 09:55:43;;;;;;;5.67;3.83;;;;;;;;;;5026717;28;20189;-57
2022/02/05 09:58:10;;;;;;;12.13;4.03;;;;;;;;;;5034053;28;20185;-57
2022/02/05 10:00:37;;;;;;;8.63;3.83;;;;;;;;;;5013824;28;20182;-55
2022/02/05 10:03:04;;;;;;;9.13;4.10;;;;;;;;;;5010992;28;20182;-57
2022/02/05 10:05:37;;;;;;;10.83;4.17;;;;;;;;;;5034596;28;20643;-56
2022/02/05 10:08:09;;;;;;;7.33;3.90;;;;;;;;;;5028459;28;20538;-57
2022/02/05 10:10:47;;;;;;;7.63;3.60;;;;;;;;;;5027311;28;20782;-56
2022/02/05 10:13:18;;;;;;;5.30;3.13;;;;;;;;;;5024794;28;20169;-56
2022/02/05 10:15:50;;;;;;;8.70;3.00;;;;;;;;;;5033837;28;20689;-56
2022/02/05 10:18:25;;;;;;;8.63;3.40;;;;;;;;;;5039067;28;20176;-57
2022/02/05 10:20:52;;;;;;;7.13;3.40;;;;;;;;;;5033789;28;20196;-57
2022/02/05 10:23:20;;;;;;;8.37;3.40;;;;;;;;;;5026184;28;20232;-57
2022/02/05 10:25:50;;;;;;;3.87;2.97;;;;;;;;;;5022318;28;20195;-56
2022/02/05 10:28:16;;;;;;;5.97;3.17;;;;;;;;;;5024370;28;20185;-56
2022/02/05 10:30:46;;;;;;;5.87;3.17;;;;;;;;;;5014691;28;20650;-57
2022/02/05 10:33:31;;;;;;;10.27;3.43;;;;;;;;;;5016652;28;20184;-57
2022/02/05 10:36:08;;;;;;;4.37;2.40;;;;;;;;;;5039020;28;20244;-56
2022/02/05 10:44:03;;;;;;;5.20;3.17;;;;;;;;;;5022233;28;20327;-56
2022/02/05 10:46:38;;;;;;;10.37;3.13;;;;;;;;;;5020842;28;20193;-56
2022/02/05 10:49:07;;;;;;;7.57;2.97;;;;;;;;;;5035825;28;20172;-56
2022/02/05 10:51:45;;;;;;;7.63;3.00;;;;;;;;;;5025098;28;20204;-57
2022/02/05 10:54:36;;;;;;;5.50;2.93;;;;;;;;;;5046919;28;20192;-56
2022/02/05 10:57:20;;;;;;;5.13;2.73;;;;;;;;;;5049336;28;20727;-56
2022/02/05 11:06:09;;;;;;;4.10;3.17;;;;;;;;;;5035881;28;20243;-56
2022/02/05 11:08:38;;;;;;;4.93;2.63;;;;;;;;;;5023213;28;20178;-57
2022/02/05 11:16:59;;;;;;;3.50;2.43;;;;;;;;;;5026257;28;20255;-57
2022/02/05 11:19:26;;;;;;;4.70;2.57;;;;;;;;;;5014207;28;20189;-56
2022/02/05 11:21:52;;;;;;;7.23;2.70;;;;;;;;;;4994835;28;20288;-57
2022/02/05 11:24:22;;;;;;;6.83;2.60;;;;;;;;;;5006408;28;20640;-57
2022/02/05 11:26:51;;;;;;;6.00;2.30;;;;;;;;;;5015257;28;20189;-56
2022/02/05 11:29:28;;;;;;;9.37;2.87;;;;;;;;;;5009592;28;20193;-56
2022/02/05 11:32:02;;;;;;;6.27;3.57;;;;;;;;;;5023157;28;20622;-56
2022/02/05 11:34:47;;;;;;;6.80;3.17;;;;;;;;;;5030757;28;20181;-56
2022/02/05 11:37:13;;;;;;;8.37;3.23;;;;;;;;;;5022772;28;20182;-56
2022/02/05 11:39:47;;;;;;;8.10;2.97;;;;;;;;;;5021132;28;20188;-57
2022/02/05 11:42:26;;;;;;;7.93;3.13;;;;;;;;;;5021821;28;20269;-56
2022/02/05 11:44:52;;;;;;;5.37;3.00;;;;;;;;;;5033106;28;20331;-57
2022/02/05 11:47:19;;;;;;;9.20;3.10;;;;;;;;;;5019163;28;20221;-56
2022/02/05 11:49:55;;;;;;;6.00;2.90;;;;;;;;;;5010027;28;20178;-57
2022/02/05 11:52:37;;;;;;;7.30;3.07;;;;;;;;;;5005039;28;20219;-56
2022/02/05 11:55:08;;;;;;;6.60;3.50;;;;;;;;;;5017264;28;20193;-56
2022/02/05 11:57:43;;;;;;;5.77;2.47;;;;;;;;;;5020122;28;20201;-56
2022/02/05 12:00:11;;;;;;;7.77;3.17;;;;;;;;;;5020601;28;20641;-56
2022/02/05 12:02:51;;;;;;;5.17;2.87;;;;;;;;;;5022596;28;20185;-56
2022/02/05 12:05:25;;;;;;;5.83;2.63;;;;;;;;;;5018529;28;20246;-56
2022/02/05 12:08:06;;;;;;;9.40;2.60;;;;;;;;;;5024746;28;20200;-56
2022/02/05 12:10:34;;;;;;;7.43;2.63;;;;;;;;;;5017391;28;20736;-56
2022/02/05 12:13:38;;;;;;;5.43;2.67;;;;;;;;;;5015699;28;20193;-56
2022/02/05 12:16:06;;;;;;;8.20;2.47;;;;;;;;;;4969996;28;20646;-56
2022/02/05 12:18:34;;;;;;;4.50;2.10;;;;;;;;;;5024953;28;20263;-56
2022/02/05 12:21:11;;;;;;;4.93;2.83;;;;;;;;;;5015650;28;20186;-56
2022/02/05 12:26:09;;;;;;;3.93;2.40;;;;;;;;;;5026434;28;20269;-55
2022/02/05 12:28:40;;;;;;;2.47;2.10;;;;;;;;;;5004599;28;20186;-56
2022/02/05 12:31:30;;;;;;;7.27;2.60;;;;;;;;;;5014109;28;20290;-56
2022/02/05 12:33:59;;;;;;;5.17;2.17;;;;;;;;;;5023606;28;20178;-56
2022/02/05 12:36:47;;;;;;;10.73;2.27;;;;;;;;;;5019100;28;20186;-56
2022/02/05 12:39:18;;;;;;;4.53;2.67;;;;;;;;;;5031645;28;20271;-55
2022/02/05 12:41:48;;;;;;;2.00;1.77;;;;;;;;;;5024017;28;20200;-56
2022/02/05 12:44:22;;;;;;;2.33;1.80;;;;;;;;;;5016494;28;20177;-56
2022/02/05 12:46:53;;;;;;;7.83;2.67;;;;;;;;;;5012923;28;20190;-57
2022/02/05 12:49:24;;;;;;;7.17;2.50;;;;;;;;;;5014851;28;20185;-57
2022/02/05 12:51:51;;;;;;;6.90;2.40;;;;;;;;;;5019292;28;20228;-57
2022/02/05 12:54:20;;;;;;;4.17;2.00;;;;;;;;;;5029609;28;20196;-56
2022/02/05 12:56:47;;;;;;;6.50;2.57;;;;;;;;;;5022437;28;20740;-56
2022/02/05 12:59:17;;;;;;;4.80;2.37;;;;;;;;;;5026479;28;20625;-56
2022/02/05 13:02:07;;;;;;;7.03;2.70;;;;;;;;;;5013876;28;20201;-56
2022/02/05 13:04:34;;;;;;;4.13;2.30;;;;;;;;;;5024879;28;20705;-55
2022/02/05 13:07:07;;;;;;;6.80;2.23;;;;;;;;;;5012076;28;20186;-57
2022/02/05 13:09:36;;;;;;;5.80;2.10;;;;;;;;;;4996188;28;20757;-56
2022/02/05 13:12:14;;;;;;;4.17;2.20;;;;;;;;;;5028919;28;20209;-56
2022/02/05 13:14:44;;;;;;;2.23;1.83;;;;;;;;;;5022884;28;20256;-58
2022/02/05 13:17:21;;;;;;;2.67;2.00;;;;;;;;;;5030463;28;20612;-57
2022/02/05 13:28:07;;;;;;;4.93;1.90;;;;;;;;;;5020661;28;20240;-57
2022/02/05 13:36:03;;;;;;;4.73;1.97;;;;;;;;;;5016124;28;20245;-57
2022/02/05 13:38:36;;;;;;;5.17;2.20;;;;;;;;;;5018258;28;20189;-56
2022/02/05 13:41:09;;;;;;;5.33;2.43;;;;;;;;;;5027943;28;20192;-56
2022/02/05 13:43:45;;;;;;;3.87;1.80;;;;;;;;;;5017114;28;20547;-55
2022/02/05 13:46:20;;;;;;;3.10;2.40;;;;;;;;;;5017259;28;20663;-57
2022/02/05 13:48:47;;;;;;;2.63;1.80;;;;;;;;;;5019462;28;20573;-56
2022/02/05 13:51:25;;;;;;;4.53;1.70;;;;;;;;;;5013915;28;20210;-57
2022/02/05 13:53:56;;;;;;;4.23;1.80;;;;;;;;;;5010939;28;20564;-56
2022/02/05 13:56:25;;;;;;;5.47;1.77;;;;;;;;;;5023733;28;20568;-57
2022/02/05 13:59:00;;;;;;;2.63;1.50;;;;;;;;;;5027048;28;20178;-56
2022/02/05 14:01:27;;;;;;;5.33;1.80;;;;;;;;;;5022161;28;20189;-56
2022/02/05 14:03:53;;;;;;;4.80;1.70;;;;;;;;;;5019636;28;20652;-55
2022/02/05 14:06:20;;;;;;;5.70;2.07;;;;;;;;;;5014731;28;20193;-57
2022/02/05 14:08:48;;;;;;;5.37;2.27;;;;;;;;;;5020937;28;20235;-56
2022/02/05 14:11:15;;;;;;;5.93;1.73;;;;;;;;;;5027150;28;20256;-55
2022/02/05 14:13:42;;;;;;;6.70;2.10;;;;;;;;;;5030367;28;20181;-56
2022/02/05 14:16:28;;;;;;;5.33;2.10;;;;;;;;;;5028855;28;20653;-58
2022/02/05 14:19:04;;;;;;;7.27;2.43;;;;;;;;;;5008581;28;20235;-56
2022/02/05 14:21:45;;;;;;;4.87;2.23;;;;;;;;;;5009842;28;20182;-57
2022/02/05 14:24:18;;;;;;;8.03;2.33;;;;;;;;;;5012255;28;20215;-57
2022/02/05 14:27:05;;;;;;;3.93;2.10;;;;;;;;;;5024845;28;20186;-56
2022/02/05 14:29:42;;;;;;;4.87;2.13;;;;;;;;;;5028444;28;20585;-56
2022/02/05 14:32:21;;;;;;;11.70;2.20;;;;;;;;;;5028841;28;20196;-57
2022/02/05 14:36:11;;;;;;;7.40;2.03;;;;;;;;;;5022195;28;20390;-56
2022/02/05 14:40:44;;;;;;;6.73;2.07;;;;;;;;;;5025317;28;20203;-59
2022/02/05 14:43:22;;;;;;;;;;;;;;;;;;;;;
2022/02/05 14:45:53;;;;;;;9.70;2.30;;;;;;;;;;5022570;28;20177;-59
2022/02/05 14:48:26;;;;;;;4.87;2.07;;;;;;;;;;5010079;28;20181;-60
2022/02/05 14:51:00;;;;;;;9.63;2.47;;;;;;;;;;5017544;28;20352;-59
2022/02/05 14:53:26;;;;;;;8.43;1.97;;;;;;;;;;5010441;28;20181;-63
2022/02/05 14:55:53;;;;;;;5.23;2.03;;;;;;;;;;5008899;28;20178;-60
2022/02/05 14:58:22;;;;;;;2.83;1.60;;;;;;;;;;5013994;28;20174;-59
2022/02/05 15:00:48;;;;;;;8.67;1.90;;;;;;;;;;5043223;28;20196;-59
2022/02/05 15:03:19;;;;;;;3.63;1.67;;;;;;;;;;5034344;28;20182;-57
2022/02/05 15:05:49;;;;;;;6.77;2.27;;;;;;;;;;5031506;28;20201;-58
2022/02/05 15:08:18;;;;;;;4.80;1.83;;;;;;;;;;5027020;28;20319;-58
2022/02/05 15:10:49;;;;;;;6.50;2.13;;;;;;;;;;5012346;28;20463;-58
2022/02/05 15:13:15;;;;;;;2.30;1.50;;;;;;;;;;5020678;28;20681;-58
2022/02/05 15:15:49;;;;;;;3.17;1.50;;;;;;;;;;5007863;28;20286;-58
2022/02/05 15:18:26;;;;;;;5.60;1.57;;;;;;;;;;5023962;28;20183;-58
2022/02/05 15:20:52;;;;;;;6.00;1.83;;;;;;;;;;5030196;28;20174;-58
2022/02/05 15:23:19;;;;;;;6.30;2.13;;;;;;;;;;5024073;28;20240;-58
2022/02/05 15:25:50;;;;;;;2.97;1.80;;;;;;;;;;5031094;28;20272;-58
2022/02/05 15:28:16;;;;;;;3.53;1.77;;;;;;;;;;5008164;28;20233;-59
2022/02/05 15:30:43;;;;;;;2.87;1.63;;;;;;;;;;5022343;28;20201;-60
2022/02/05 15:33:09;;;;;;;4.60;2.07;;;;;;;;;;5044378;28;20338;-59
2022/02/05 15:35:36;;;;;;;6.10;2.03;;;;;;;;;;5011600;28;20185;-59
2022/02/05 15:38:10;;;;;;;4.10;1.57;;;;;;;;;;5001893;28;20259;-60
2022/02/05 15:43:39;;;;;;;4.17;1.70;;;;;;;;;;5021472;28;20264;-59
2022/02/05 15:46:05;;;;;;;1.47;1.23;;;;;;;;;;5011387;28;20190;-59
2022/02/05 15:48:31;;;;;;;3.47;1.67;;;;;;;;;;5013040;28;20182;-59
2022/02/05 15:51:01;;;;;;;4.33;1.83;;;;;;;;;;5024701;28;20197;-59
2022/02/05 15:53:33;;;;;;;4.97;1.67;;;;;;;;;;4999345;28;20194;-59
2022/02/05 15:55:59;;;;;;;4.77;1.50;;;;;;;;;;5020915;28;20743;-59
2022/02/05 15:58:34;;;;;;;5.30;1.90;;;;;;;;;;5020914;28;20208;-59
2022/02/05 16:01:00;;;;;;;4.73;1.60;;;;;;;;;;5023320;28;20548;-59
2022/02/05 16:03:27;;;;;;;3.77;1.90;;;;;;;;;;5013886;28;20562;-59
2022/02/05 16:05:54;;;;;;;3.43;1.83;;;;;;;;;;5019132;28;20340;-58
2022/02/05 16:08:20;;;;;;;5.03;1.80;;;;;;;;;;5000731;28;20569;-58
2022/02/05 16:10:48;;;;;;;3.23;2.00;;;;;;;;;;5002759;28;20693;-60
2022/02/05 16:13:14;;;;;;;5.40;2.30;;;;;;;;;;5020379;28;20640;-59
2022/02/05 16:15:40;;;;;;;2.33;1.83;;;;;;;;;;5023547;28;20178;-60
2022/02/05 16:18:06;;;;;;;3.77;1.83;;;;;;;;;;5003561;28;20627;-58
2022/02/05 16:20:32;;;;;;;5.33;2.10;;;;;;;;;;4998468;28;20226;-59
2022/02/05 16:23:01;;;;;;;5.43;2.10;;;;;;;;;;5017384;28;20193;-58
2022/02/05 16:25:28;;;;;;;2.60;1.90;;;;;;;;;;4998601;28;20189;-60
2022/02/05 16:27:56;;;;;;;3.60;1.90;;;;;;;;;;5026240;28;20559;-59
2022/02/05 16:30:28;;;;;;;5.33;2.23;;;;;;;;;;5005813;28;20213;-58
2022/02/05 16:32:57;;;;;;;2.53;1.97;;;;;;;;;;5025983;28;20185;-59
2022/02/05 16:35:29;;;;;;;6.30;2.60;;;;;;;;;;5028061;28;20212;-61
2022/02/05 16:37:57;;;;;;;6.37;3.13;;;;;;;;;;5017337;28;20185;-58
2022/02/05 16:40:25;;;;;;;7.50;3.37;;;;;;;;;;5015817;28;20197;-58
2022/02/05 16:42:54;;;;;;;8.30;4.10;;;;;;;;;;5019799;28;20642;-59
2022/02/05 16:45:23;;;;;;;7.57;3.37;;;;;;;;;;5009876;28;20266;-59
2022/02/05 16:47:49;;;;;;;8.27;3.60;;;;;;;;;;5024156;28;20661;-58
2022/02/05 16:50:18;;;;;;;7.53;3.17;;;;;;;;;;5023292;28;20575;-59
2022/02/05 16:52:50;;;;;;;7.43;3.43;;;;;;;;;;5016529;28;20312;-60
2022/02/05 16:55:18;;;;;;;6.50;3.73;;;;;;;;;;5004432;28;20192;-60
2022/02/05 16:57:48;;;;;;;6.53;3.40;;;;;;;;;;5028760;28;20257;-59
2022/02/05 17:00:14;;;;;;;7.97;3.70;;;;;;;;;;5006631;28;20197;-59
2022/02/05 17:02:41;;;;;;;5.20;2.90;;;;;;;;;;5014546;28;20273;-59
2022/02/05 17:05:08;;;;;;;7.47;3.60;;;;;;;;;;5016815;28;20273;-59
2022/02/05 17:07:34;;;;;;;4.53;3.10;;;;;;;;;;5022213;28;20287;-59
2022/02/05 17:10:04;;;;;;;5.93;3.10;;;;;;;;;;5016353;28;20189;-59
2022/02/05 17:12:30;;;;;;;5.80;3.33;;;;;;;;;;5024008;28;20291;-58
2022/02/05 17:14:57;;;;;;;3.50;2.90;;;;;;;;;;5009115;28;20191;-59
2022/02/05 17:17:28;;;;;;;7.07;2.47;;;;;;;;;;5019372;28;20657;-60
2022/02/05 17:19:57;;;;;;;6.17;2.70;;;;;;;;;;5026407;28;20208;-58
2022/02/05 17:22:29;;;;;;;6.03;2.60;;;;;;;;;;5034896;28;20902;-59
2022/02/05 17:25:00;;;;;;;4.10;2.00;;;;;;;;;;5021857;28;20186;-58
2022/02/05 17:27:27;;;;;;;8.30;2.70;;;;;;;;;;5024279;28;20188;-59
2022/02/05 17:29:53;;;;;;;3.17;2.40;;;;;;;;;;5018692;28;20186;-59
2022/02/05 17:32:22;;;;;;;5.90;2.87;;;;;;;;;;5018122;28;20652;-58
2022/02/05 17:34:54;;;;;;;8.03;2.80;;;;;;;;;;5016546;28;20183;-59
2022/02/05 17:37:21;;;;;;;6.03;2.47;;;;;;;;;;5015285;28;20178;-61
2022/02/05 17:39:53;;;;;;;4.13;2.17;;;;;;;;;;5016272;28;20222;-59
2022/02/05 17:42:25;;;;;;;6.53;2.37;;;;;;;;;;5036545;28;20252;-61
2022/02/05 17:44:54;;;;;;;7.60;3.73;;;;;;;;;;5018582;28;20326;-58
2022/02/05 17:47:21;;;;;;;6.83;2.50;;;;;;;;;;5013062;28;20238;-59
2022/02/05 17:49:47;;;;;;;4.43;2.20;;;;;;;;;;5013264;28;20186;-59
2022/02/05 17:52:17;;;;;;;5.27;2.10;;;;;;;;;;5018408;28;21005;-60
2022/02/05 17:54:46;;;;;;;7.07;2.23;;;;;;;;;;5010218;28;20181;-59
2022/02/05 17:57:13;;;;;;;5.97;2.53;;;;;;;;;;5021617;28;20217;-60
2022/02/05 17:59:46;;;;;;;4.77;2.10;;;;;;;;;;5003388;28;20278;-58
2022/02/05 18:02:20;;;;;;;4.20;2.20;;;;;;;;;;5010739;28;20178;-60
2022/02/05 18:04:46;;;;;;;6.67;2.07;;;;;;;;;;5011033;28;20195;-59